Gao Qiang — VRVQ8 — position and weather

sailwx.info

Track history (hours):
 
Tides and Currents Weather Stations Pressure Air Temp Water Temp Dewpoint Dewpoint Depression Visibility Wind Speed Wind Dir Waves Ship Positions

Gao Qiang

Last reported at 2016-Jun-25 18:33 UTC. Time now 2016-Jun-28 09:52 UTC.
Position N 01°11' E 103°40'.

Length 186 m; draft 9.5 m.

Type: Cargo ship. MMSI: 477611000.

Date/timePositionNaut miles runAvg speedWind from/ knotsBaromVisibWave heightAir tempDewpointWater temp
2016-Jun-25 18:33N 01°11' E 103°40'1111.1
2016-Jun-25 17:33N 01°12' E 103°51'7 7.5
2016-Jun-25 16:33N 01°17' E 103°56'0 0.1
2016-Jun-25 13:20N 01°17' E 103°56'0 0.0
2016-Jun-25 10:33N 01°17' E 103°56'0 0.0
2016-Jun-25 09:33N 01°17' E 103°56'0 0.0
2016-Jun-25 08:33N 01°17' E 103°56'0 0.0
2016-Jun-25 07:17N 01°17' E 103°56'0 0.0
2016-Jun-25 06:33N 01°17' E 103°56'0 0.0
2016-Jun-25 05:33N 01°17' E 103°56'0 0.1
2016-Jun-25 04:33N 01°17' E 103°56'2 2.3
2016-Jun-25 03:33N 01°16' E 103°58'  
2016-Jun-19 13:32N 22°16' E 119°49'1211.8
2016-Jun-19 12:33N 22°25' E 119°57'1212.2
2016-Jun-19 11:33N 22°34' E 120°06'10 9.9
2016-Jun-19 10:34N 22°37' E 120°16'2 1.1
2016-Jun-19 09:11N 22°36' E 120°18'0 0.0
2016-Jun-19 08:29N 22°36' E 120°18'0 0.0
2016-Jun-19 07:29N 22°36' E 120°18'0 0.0
2016-Jun-19 06:29N 22°36' E 120°18'0 0.0
2016-Jun-19 05:29N 22°36' E 120°18'0 0.0
2016-Jun-19 04:29N 22°36' E 120°18'0 0.0
2016-Jun-19 03:29N 22°36' E 120°18'0 0.0
2016-Jun-19 02:23N 22°36' E 120°18'0 0.0
2016-Jun-19 01:29N 22°36' E 120°18'0 0.0
2016-Jun-18 23:29N 22°36' E 120°18'0 0.0
2016-Jun-18 22:23N 22°36' E 120°18'0 0.0
2016-Jun-18 21:29N 22°36' E 120°18'0 0.0
2016-Jun-18 20:29N 22°36' E 120°18'0 0.0
2016-Jun-18 19:17N 22°36' E 120°18'0 0.0
2016-Jun-18 17:29N 22°36' E 120°18'0 0.0
2016-Jun-18 15:23N 22°36' E 120°18'0 0.0
2016-Jun-18 14:29N 22°36' E 120°18'0 0.0
2016-Jun-18 13:29N 22°36' E 120°18'0 0.0
2016-Jun-18 12:23N 22°36' E 120°18'0 0.0
2016-Jun-18 11:29N 22°36' E 120°18'0 0.0
2016-Jun-18 10:29N 22°36' E 120°18'0 0.0
2016-Jun-18 09:29N 22°36' E 120°18'0 0.0
2016-Jun-18 08:29N 22°36' E 120°18'0 0.0
2016-Jun-18 07:29N 22°36' E 120°18'0 0.0
2016-Jun-18 06:23N 22°36' E 120°18'0 0.0
2016-Jun-18 05:29N 22°36' E 120°18'0 0.0
2016-Jun-18 04:29N 22°36' E 120°18'0 0.0
2016-Jun-18 03:29N 22°36' E 120°18'0 0.0
2016-Jun-18 02:29N 22°36' E 120°18'0 0.0
2016-Jun-18 01:29N 22°36' E 120°18'0 0.0
2016-Jun-18 00:23N 22°36' E 120°18'0 0.0
2016-Jun-17 23:23N 22°36' E 120°18'0 0.0
2016-Jun-17 22:29N 22°36' E 120°18'0 0.0
2016-Jun-17 21:17N 22°36' E 120°18'0 0.0
2016-Jun-17 20:29N 22°36' E 120°18'0 0.0
2016-Jun-17 19:23N 22°36' E 120°18'0 0.0
2016-Jun-17 18:29N 22°36' E 120°18'0 0.0
2016-Jun-17 16:29N 22°36' E 120°18'0 0.0
2016-Jun-17 15:29N 22°36' E 120°18'0 0.0
2016-Jun-17 14:29N 22°36' E 120°18'0 0.0
2016-Jun-17 13:29N 22°36' E 120°18'0 0.0
2016-Jun-17 12:05N 22°36' E 120°18'0 0.0
2016-Jun-17 11:29N 22°36' E 120°18'0 0.0
2016-Jun-17 10:29N 22°36' E 120°18'0 0.0
2016-Jun-17 09:29N 22°36' E 120°18'0 0.0
2016-Jun-17 08:29N 22°36' E 120°18'0 0.0
2016-Jun-17 07:23N 22°36' E 120°18'0 0.0
2016-Jun-17 06:29N 22°36' E 120°18'0 0.0
2016-Jun-17 05:29N 22°36' E 120°18'0 0.0
2016-Jun-17 04:29N 22°36' E 120°18'0 0.0
2016-Jun-17 03:29N 22°36' E 120°18'0 0.0
2016-Jun-17 02:29N 22°36' E 120°18'0 0.0
2016-Jun-17 01:29N 22°36' E 120°18'0 0.0
2016-Jun-17 00:23N 22°36' E 120°18'0 0.0
2016-Jun-16 23:29N 22°36' E 120°18'0 0.0
2016-Jun-16 22:29N 22°36' E 120°18'0 0.0
2016-Jun-16 21:29N 22°36' E 120°18'0 0.0
2016-Jun-16 20:23N 22°36' E 120°18'0 0.0
2016-Jun-16 19:29N 22°36' E 120°18'0 0.0
2016-Jun-16 18:29N 22°36' E 120°18'0 0.0
2016-Jun-16 17:29N 22°36' E 120°18'0 0.0
2016-Jun-16 16:29N 22°36' E 120°18'0 0.0
2016-Jun-16 14:29N 22°36' E 120°18'0 0.0
2016-Jun-16 13:29N 22°36' E 120°18'0 0.0
2016-Jun-16 11:17N 22°36' E 120°18'0 0.0
2016-Jun-16 10:23N 22°36' E 120°18'0 0.0
2016-Jun-16 09:23N 22°36' E 120°18'0 0.0
2016-Jun-16 08:29N 22°36' E 120°18'0 0.0
2016-Jun-16 07:23N 22°36' E 120°18'0 0.0
2016-Jun-16 06:29N 22°36' E 120°18'0 0.0
2016-Jun-16 04:29N 22°36' E 120°18'0 0.0
2016-Jun-16 03:23N 22°36' E 120°18'0 0.0
2016-Jun-16 02:29N 22°36' E 120°18'0 0.0
2016-Jun-16 00:26N 22°36' E 120°18'0 0.0
2016-Jun-15 23:26N 22°36' E 120°18'0 0.0
2016-Jun-15 22:32N 22°36' E 120°18'0 0.0
2016-Jun-15 21:32N 22°36' E 120°18'0 0.0
2016-Jun-15 20:32N 22°36' E 120°18'0 0.0
2016-Jun-15 19:32N 22°36' E 120°18'  
Track history (hours):
 
Tides and Currents Weather Stations Pressure Air Temp Water Temp Dewpoint Dewpoint Depression Visibility Wind Speed Wind Dir Waves Ship Positions

Gao Qiang

Last reported at 2016-Jun-25 18:33 UTC. Time now 2016-Jun-28 09:52 UTC.
Position N 01°11' E 103°40'.

Length 186 m; draft 9.5 m.

Type: Cargo ship. MMSI: 477611000.

Date/timePositionNaut miles runAvg speedWind from/ knotsBaromVisibWave heightAir tempDewpointWater temp
2016-Jun-25 18:33N 01°11' E 103°40'1111.1
2016-Jun-25 17:33N 01°12' E 103°51'7 7.5
2016-Jun-25 16:33N 01°17' E 103°56'0 0.1
2016-Jun-25 13:20N 01°17' E 103°56'0 0.0
2016-Jun-25 10:33N 01°17' E 103°56'0 0.0
2016-Jun-25 09:33N 01°17' E 103°56'0 0.0
2016-Jun-25 08:33N 01°17' E 103°56'0 0.0
2016-Jun-25 07:17N 01°17' E 103°56'0 0.0
2016-Jun-25 06:33N 01°17' E 103°56'0 0.0
2016-Jun-25 05:33N 01°17' E 103°56'0 0.1
2016-Jun-25 04:33N 01°17' E 103°56'2 2.3
2016-Jun-25 03:33N 01°16' E 103°58'  
2016-Jun-19 13:32N 22°16' E 119°49'1211.8
2016-Jun-19 12:33N 22°25' E 119°57'1212.2
2016-Jun-19 11:33N 22°34' E 120°06'10 9.9
2016-Jun-19 10:34N 22°37' E 120°16'2 1.1
2016-Jun-19 09:11N 22°36' E 120°18'0 0.0
2016-Jun-19 08:29N 22°36' E 120°18'0 0.0
2016-Jun-19 07:29N 22°36' E 120°18'0 0.0
2016-Jun-19 06:29N 22°36' E 120°18'0 0.0
2016-Jun-19 05:29N 22°36' E 120°18'0 0.0
2016-Jun-19 04:29N 22°36' E 120°18'0 0.0
2016-Jun-19 03:29N 22°36' E 120°18'0 0.0
2016-Jun-19 02:23N 22°36' E 120°18'0 0.0
2016-Jun-19 01:29N 22°36' E 120°18'0 0.0
2016-Jun-18 23:29N 22°36' E 120°18'0 0.0
2016-Jun-18 22:23N 22°36' E 120°18'0 0.0
2016-Jun-18 21:29N 22°36' E 120°18'0 0.0
2016-Jun-18 20:29N 22°36' E 120°18'0 0.0
2016-Jun-18 19:17N 22°36' E 120°18'0 0.0
2016-Jun-18 17:29N 22°36' E 120°18'0 0.0
2016-Jun-18 15:23N 22°36' E 120°18'0 0.0
2016-Jun-18 14:29N 22°36' E 120°18'0 0.0
2016-Jun-18 13:29N 22°36' E 120°18'0 0.0
2016-Jun-18 12:23N 22°36' E 120°18'0 0.0
2016-Jun-18 11:29N 22°36' E 120°18'0 0.0
2016-Jun-18 10:29N 22°36' E 120°18'0 0.0
2016-Jun-18 09:29N 22°36' E 120°18'0 0.0
2016-Jun-18 08:29N 22°36' E 120°18'0 0.0
2016-Jun-18 07:29N 22°36' E 120°18'0 0.0
2016-Jun-18 06:23N 22°36' E 120°18'0 0.0
2016-Jun-18 05:29N 22°36' E 120°18'0 0.0
2016-Jun-18 04:29N 22°36' E 120°18'0 0.0
2016-Jun-18 03:29N 22°36' E 120°18'0 0.0
2016-Jun-18 02:29N 22°36' E 120°18'0 0.0
2016-Jun-18 01:29N 22°36' E 120°18'0 0.0
2016-Jun-18 00:23N 22°36' E 120°18'0 0.0
2016-Jun-17 23:23N 22°36' E 120°18'0 0.0
2016-Jun-17 22:29N 22°36' E 120°18'0 0.0
2016-Jun-17 21:17N 22°36' E 120°18'0 0.0
2016-Jun-17 20:29N 22°36' E 120°18'0 0.0
2016-Jun-17 19:23N 22°36' E 120°18'0 0.0
2016-Jun-17 18:29N 22°36' E 120°18'0 0.0
2016-Jun-17 16:29N 22°36' E 120°18'0 0.0
2016-Jun-17 15:29N 22°36' E 120°18'0 0.0
2016-Jun-17 14:29N 22°36' E 120°18'0 0.0
2016-Jun-17 13:29N 22°36' E 120°18'0 0.0
2016-Jun-17 12:05N 22°36' E 120°18'0 0.0
2016-Jun-17 11:29N 22°36' E 120°18'0 0.0
2016-Jun-17 10:29N 22°36' E 120°18'0 0.0
2016-Jun-17 09:29N 22°36' E 120°18'0 0.0
2016-Jun-17 08:29N 22°36' E 120°18'0 0.0
2016-Jun-17 07:23N 22°36' E 120°18'0 0.0
2016-Jun-17 06:29N 22°36' E 120°18'0 0.0
2016-Jun-17 05:29N 22°36' E 120°18'0 0.0
2016-Jun-17 04:29N 22°36' E 120°18'0 0.0
2016-Jun-17 03:29N 22°36' E 120°18'0 0.0
2016-Jun-17 02:29N 22°36' E 120°18'0 0.0
2016-Jun-17 01:29N 22°36' E 120°18'0 0.0
2016-Jun-17 00:23N 22°36' E 120°18'0 0.0
2016-Jun-16 23:29N 22°36' E 120°18'0 0.0
2016-Jun-16 22:29N 22°36' E 120°18'0 0.0
2016-Jun-16 21:29N 22°36' E 120°18'0 0.0
2016-Jun-16 20:23N 22°36' E 120°18'0 0.0
2016-Jun-16 19:29N 22°36' E 120°18'0 0.0
2016-Jun-16 18:29N 22°36' E 120°18'0 0.0
2016-Jun-16 17:29N 22°36' E 120°18'0 0.0
2016-Jun-16 16:29N 22°36' E 120°18'0 0.0
2016-Jun-16 14:29N 22°36' E 120°18'0 0.0
2016-Jun-16 13:29N 22°36' E 120°18'0 0.0
2016-Jun-16 11:17N 22°36' E 120°18'0 0.0
2016-Jun-16 10:23N 22°36' E 120°18'0 0.0
2016-Jun-16 09:23N 22°36' E 120°18'0 0.0
2016-Jun-16 08:29N 22°36' E 120°18'0 0.0
2016-Jun-16 07:23N 22°36' E 120°18'0 0.0
2016-Jun-16 06:29N 22°36' E 120°18'0 0.0
2016-Jun-16 04:29N 22°36' E 120°18'0 0.0
2016-Jun-16 03:23N 22°36' E 120°18'0 0.0
2016-Jun-16 02:29N 22°36' E 120°18'0 0.0
2016-Jun-16 00:26N 22°36' E 120°18'0 0.0
2016-Jun-15 23:26N 22°36' E 120°18'0 0.0
2016-Jun-15 22:32N 22°36' E 120°18'0 0.0
2016-Jun-15 21:32N 22°36' E 120°18'0 0.0
2016-Jun-15 20:32N 22°36' E 120°18'0 0.0
2016-Jun-15 19:32N 22°36' E 120°18'  

Dump ship's entire track history